• Join FlightAware (Why Join?)
  • Login
  • US Flag 
12:41AM EDT


 

Airport Tracker/Info


-or-


 

Live Flight TrackerFlight Track Log ✈ GGA1 ✈ 09-Apr-2013 ✈ KCSG - KAHN

Flight Track Log - Related Links

Times and Time Zones

All times are in EDT time to prevent confusion due to time zone crossing. See the GGA1 flight status page for this flight to view local times or setup timezone preferences in your user account.

Time Position Orientation Groundspeed Altitude Reporting Facility
EDT Latitude Longitude Course Direction KTS MPH feet Rate Location/Type
08:37PM 32.5500 -84.8667 62° Northeast 148 170 2,900  Level Atlanta TRACON
08:38PM 32.5708 -84.8203 62° Northeast 155 178 5,100 1,800 Climbing Atlanta Center
08:39PM 32.5878 -84.7686 69° East 160 184 6,900 1,800 Climbing Atlanta Center
08:40PM 32.6089 -84.7144 65° Northeast 165 190 8,700 1,500 Climbing Atlanta Center
08:41PM 32.6342 -84.6531 64° Northeast 177 204 9,900 600 Climbing Atlanta Center
08:42PM 32.6597 -84.5939 63° Northeast 191 220 9,900 300 Level Atlanta Center
08:43PM 32.6953 -84.5203 60° Northeast 229 264 10,500 480 Climbing Atlanta Center
08:44PM 32.7250 -84.4461 65° Northeast 240 276 10,900 180 Climbing Atlanta Center
08:45PM 32.7564 -84.3747 62° Northeast 240 276 10,900  Level Atlanta Center
08:46PM 32.7878 -84.2983 64° Northeast 247 284 10,900  Level Atlanta Center
08:47PM 32.8278 -84.2169 60° Northeast 253 291 11,000  Climbing Atlanta Center
08:48PM 32.8528 -84.1378 69° East 262 302 11,000  Level Atlanta Center
08:49PM 32.8864 -84.0636 62° Northeast 256 295 11,000  Level Atlanta Center
08:50PM 32.9175 -83.9894 63° Northeast 256 295 11,000  Level Atlanta Center
08:51PM 32.9508 -83.9075 64° Northeast 256 295 11,000  Level Atlanta Center
08:52PM 32.9842 -83.8308 63° Northeast 256 295 11,000 -300 Level Atlanta Center
08:53PM 33.0175 -83.7464 65° Northeast 261 300 10,500 -540 Descending Atlanta Center
08:54PM 33.0528 -83.6694 61° Northeast 261 300 10,000 -300 Descending Atlanta Center
08:55PM 33.0942 -83.5875 59° Northeast 267 307 10,000  Level Atlanta Center
08:56PM 33.1544 -83.5500 28° Northeast 247 284 10,000  Level Atlanta Center
08:57PM 33.2275 -83.5472 North 227 261 10,000  Level Atlanta Center
08:58PM 33.2986 -83.5269 13° North 251 289 10,000 -360 Level Atlanta Center
08:59PM 33.3694 -83.4992 18° North 258 297 9,300 -540 Descending Atlanta Center
09:00PM 33.4422 -83.4761 15° North 263 303 9,000 -480 Descending Atlanta Center
09:02PM 33.5833 -83.4333 14° North 265 305 7,900 -1,020 Descending Atlanta TRACON
09:03PM 33.6667 -83.4167 North 296 341 6,100 -1,800 Descending Atlanta TRACON
09:04PM 33.7333 -83.3833 23° Northeast 284 327 4,400 -1,740 Descending Atlanta TRACON